createdAt,value
2023-04-23T00:00:43.797Z,16.94
2023-04-23T00:03:33.299Z,16.92
2023-04-23T00:06:19.678Z,16.89
2023-04-23T00:09:06.656Z,16.87
2023-04-23T00:11:51.885Z,16.86
2023-04-23T00:14:37.285Z,16.87
2023-04-23T00:17:22.529Z,16.86
2023-04-23T00:20:09.111Z,16.86
2023-04-23T00:22:54.634Z,16.82
2023-04-23T00:25:39.878Z,16.86
2023-04-23T00:28:25.664Z,16.82
2023-04-23T00:31:11.119Z,16.87
2023-04-23T00:33:56.805Z,16.79
2023-04-23T00:36:42.605Z,16.79
2023-04-23T00:39:27.765Z,16.74
2023-04-23T00:42:13.652Z,16.68
2023-04-23T00:45:01.585Z,16.65
2023-04-23T00:47:47.210Z,16.62
2023-04-23T00:50:32.536Z,16.59
2023-04-23T00:53:18.044Z,16.61
2023-04-23T00:56:05.329Z,16.57
2023-04-23T00:58:52.241Z,16.51
2023-04-23T01:01:37.702Z,16.52
2023-04-23T01:04:27.609Z,16.52
2023-04-23T01:07:13.237Z,16.48
2023-04-23T01:09:58.956Z,16.44
2023-04-23T01:12:44.337Z,16.44
2023-04-23T01:15:29.641Z,16.33
2023-04-23T01:18:15.146Z,16.41
2023-04-23T01:21:01.629Z,16.33
2023-04-23T01:23:47.079Z,16.33
2023-04-23T01:26:33.690Z,16.34
2023-04-23T01:29:20.248Z,16.31
2023-04-23T01:32:07.453Z,16.26
2023-04-23T01:34:54.280Z,16.24
2023-04-23T01:37:40.307Z,16.20
2023-04-23T01:40:25.672Z,16.20
2023-04-23T01:43:11.032Z,16.18
2023-04-23T01:45:57.860Z,16.14
2023-04-23T01:48:43.694Z,16.11
2023-04-23T01:51:30.475Z,16.10
2023-04-23T01:54:16.197Z,16.06
2023-04-23T01:57:02.840Z,16.06
2023-04-23T01:59:48.195Z,16.06
2023-04-23T02:02:34.370Z,15.98
2023-04-23T02:05:20.328Z,15.99
2023-04-23T02:08:05.945Z,15.98
2023-04-23T02:10:51.476Z,15.93
2023-04-23T02:13:37.117Z,15.93
2023-04-23T02:16:24.442Z,15.93
2023-04-23T02:19:09.800Z,15.94
2023-04-23T02:21:55.237Z,15.89
2023-04-23T02:24:42.251Z,15.81
2023-04-23T02:27:27.876Z,15.74
2023-04-23T02:30:13.620Z,15.74
2023-04-23T02:32:59.105Z,15.71
2023-04-23T02:35:44.836Z,15.75
2023-04-23T02:38:30.123Z,15.70
2023-04-23T02:41:15.806Z,15.65
2023-04-23T02:44:01.088Z,15.63
2023-04-23T02:46:46.532Z,15.66
2023-04-23T02:49:32.091Z,15.58
2023-04-23T02:52:17.392Z,15.59
2023-04-23T02:55:03.717Z,15.64
2023-04-23T02:57:49.329Z,15.56
2023-04-23T03:00:34.539Z,15.54
2023-04-23T03:03:20.350Z,15.57
2023-04-23T03:06:06.749Z,15.53
2023-04-23T03:08:52.371Z,15.45
2023-04-23T03:11:38.351Z,15.38
2023-04-23T03:14:23.960Z,15.34
2023-04-23T03:17:09.982Z,15.33
2023-04-23T03:19:56.134Z,15.35
2023-04-23T03:22:41.554Z,15.38
2023-04-23T03:25:27.170Z,15.35
2023-04-23T03:28:12.735Z,15.35
2023-04-23T03:30:58.211Z,15.32
2023-04-23T03:33:43.866Z,15.33
2023-04-23T03:36:29.458Z,15.35
2023-04-23T03:39:15.486Z,15.35
2023-04-23T03:42:01.921Z,15.38
2023-04-23T03:44:47.285Z,15.32
2023-04-23T03:47:33.036Z,15.29
2023-04-23T03:50:18.414Z,15.30
2023-04-23T03:53:04.161Z,15.27
2023-04-23T03:55:49.463Z,15.24
2023-04-23T03:58:34.916Z,15.17
2023-04-23T04:01:20.426Z,15.18
2023-04-23T04:04:06.068Z,15.13
2023-04-23T04:06:51.765Z,15.05
2023-04-23T04:09:38.102Z,14.95
2023-04-23T04:12:23.448Z,14.81
2023-04-23T04:15:09.445Z,14.82
2023-04-23T04:17:55.123Z,14.81
2023-04-23T04:20:43.604Z,14.74
2023-04-23T04:23:29.535Z,14.60
2023-04-23T04:26:15.289Z,14.54
2023-04-23T04:29:04.495Z,14.52
2023-04-23T04:31:50.742Z,14.42
2023-04-23T04:34:38.257Z,14.33
2023-04-23T04:37:24.139Z,14.34
2023-04-23T04:40:11.373Z,14.30
2023-04-23T04:42:57.307Z,14.31
2023-04-23T04:45:44.682Z,14.26
2023-04-23T04:48:30.411Z,14.20
2023-04-23T04:51:16.304Z,14.11
2023-04-23T04:54:01.907Z,14.11
2023-04-23T04:56:47.328Z,14.07
2023-04-23T04:59:32.687Z,14.06
2023-04-23T05:02:18.159Z,14.02
2023-04-23T05:05:04.135Z,13.95
2023-04-23T05:07:49.896Z,14.00
2023-04-23T05:10:35.355Z,13.96
2023-04-23T05:13:20.755Z,13.96
2023-04-23T05:16:06.163Z,13.97
2023-04-23T05:18:52.015Z,13.94
2023-04-23T05:21:37.700Z,13.93
2023-04-23T05:24:22.960Z,13.80
2023-04-23T05:27:08.266Z,13.80
2023-04-23T05:29:53.998Z,13.74
2023-04-23T05:32:39.576Z,13.70
2023-04-23T05:35:25.410Z,13.63
2023-04-23T05:38:10.825Z,13.59
2023-04-23T05:40:56.640Z,13.63
2023-04-23T05:43:42.315Z,13.58
2023-04-23T05:46:28.143Z,13.54
2023-04-23T05:49:13.638Z,13.50
2023-04-23T05:51:59.318Z,13.49
2023-04-23T05:54:45.074Z,13.53
2023-04-23T05:57:30.541Z,13.45
2023-04-23T06:00:16.918Z,13.47
2023-04-23T06:03:02.770Z,13.45
2023-04-23T06:05:48.297Z,13.33
2023-04-23T06:08:33.613Z,13.44
2023-04-23T06:11:19.933Z,13.36
2023-04-23T06:14:05.493Z,13.44
2023-04-23T06:16:51.027Z,13.45
2023-04-23T06:19:36.763Z,13.36
2023-04-23T06:22:22.466Z,13.52
2023-04-23T06:25:08.438Z,13.45
2023-04-23T06:27:53.682Z,13.58
2023-04-23T06:30:39.303Z,13.89
2023-04-23T06:33:24.943Z,14.26
2023-04-23T06:36:11.066Z,14.51
2023-04-23T06:38:56.663Z,14.74
2023-04-23T06:41:42.002Z,14.66
2023-04-23T06:44:27.421Z,14.71
2023-04-23T06:47:13.396Z,14.66
2023-04-23T06:50:00.164Z,14.53
2023-04-23T06:52:45.936Z,14.34
2023-04-23T06:55:31.224Z,14.20
2023-04-23T06:58:18.115Z,14.18
2023-04-23T07:01:04.416Z,14.18
2023-04-23T07:03:51.578Z,14.16
2023-04-23T07:06:37.241Z,14.46
2023-04-23T07:09:23.186Z,14.50
2023-04-23T07:12:08.387Z,14.58
2023-04-23T07:14:55.313Z,14.78
2023-04-23T07:17:41.387Z,14.73
2023-04-23T07:20:26.807Z,14.58
2023-04-23T07:23:12.460Z,14.62
2023-04-23T07:25:57.916Z,14.55
2023-04-23T07:28:43.240Z,14.66
2023-04-23T07:31:28.866Z,14.84
2023-04-23T07:34:14.491Z,14.80
2023-04-23T07:37:00.272Z,15.03
2023-04-23T07:39:45.842Z,14.95
2023-04-23T07:42:32.214Z,15.10
2023-04-23T07:45:18.428Z,15.30
2023-04-23T07:48:03.709Z,15.25
2023-04-23T07:50:49.137Z,15.47
2023-04-23T07:53:34.894Z,15.73
2023-04-23T07:56:24.610Z,15.82
2023-04-23T07:59:10.076Z,15.73
2023-04-23T08:01:55.616Z,15.80
2023-04-23T08:04:41.223Z,15.85
2023-04-23T08:07:26.751Z,15.96
2023-04-23T08:10:12.312Z,15.97
2023-04-23T08:12:57.623Z,15.95
2023-04-23T08:15:43.148Z,16.12
2023-04-23T08:18:28.948Z,16.41
2023-04-23T08:21:14.523Z,16.67
2023-04-23T08:23:59.897Z,16.68
2023-04-23T08:26:46.556Z,17.20
2023-04-23T08:29:31.728Z,17.15
2023-04-23T08:32:17.420Z,16.99
2023-04-23T08:35:03.177Z,17.45
2023-04-23T08:37:48.520Z,18.17
2023-04-23T08:40:37.554Z,19.64
2023-04-23T08:43:32.270Z,20.06
2023-04-23T08:46:19.134Z,21.28
2023-04-23T08:49:07.708Z,21.96
2023-04-23T08:51:54.176Z,21.49
2023-04-23T08:54:42.386Z,21.86
2023-04-23T08:57:28.217Z,21.40
2023-04-23T09:00:17.861Z,20.89
2023-04-23T09:03:04.195Z,20.93
2023-04-23T09:05:51.725Z,21.98
2023-04-23T09:08:37.992Z,25.17
2023-04-23T09:11:24.673Z,26.45
2023-04-23T09:14:10.909Z,25.35
2023-04-23T09:16:56.682Z,24.93
2023-04-23T09:19:42.842Z,26.47
2023-04-23T09:22:41.095Z,27.24
2023-04-23T09:25:26.734Z,28.90
2023-04-23T09:28:14.114Z,29.06
2023-04-23T09:30:59.393Z,31.81
2023-04-23T09:33:51.029Z,31.30
2023-04-23T09:36:37.427Z,30.52
2023-04-23T09:39:23.967Z,29.60
2023-04-23T09:42:11.171Z,29.39
2023-04-23T09:45:07.995Z,30.75
2023-04-23T09:47:55.408Z,30.75
2023-04-23T09:50:41.299Z,29.86
2023-04-23T09:53:27.050Z,29.54
2023-04-23T09:56:12.569Z,31.68
2023-04-23T09:58:57.875Z,31.48
2023-04-23T10:01:45.676Z,31.76
2023-04-23T10:04:31.557Z,31.62
2023-04-23T10:07:20.444Z,31.21
2023-04-23T10:10:07.224Z,32.68
2023-04-23T10:12:57.028Z,33.81
2023-04-23T10:15:45.945Z,33.93
2023-04-23T10:18:32.838Z,32.75
2023-04-23T10:21:20.665Z,33.13
2023-04-23T10:24:06.490Z,35.20
2023-04-23T10:26:53.966Z,35.80
2023-04-23T10:29:40.401Z,35.11
2023-04-23T10:32:27.502Z,35.62
2023-04-23T10:35:13.122Z,36.68
2023-04-23T10:37:58.884Z,36.87
2023-04-23T10:40:49.055Z,35.64
2023-04-23T10:43:35.513Z,34.14
2023-04-23T10:46:31.420Z,34.35
2023-04-23T10:49:17.100Z,34.98
2023-04-23T10:52:19.672Z,35.66
2023-04-23T10:55:17.258Z,36.78
2023-04-23T10:58:04.891Z,36.26
2023-04-23T11:00:51.498Z,37.91
2023-04-23T11:03:43.564Z,38.92
2023-04-23T11:06:47.950Z,38.47
2023-04-23T11:09:42.569Z,39.00
2023-04-23T11:12:28.006Z,36.64
2023-04-23T11:15:18.737Z,34.85
2023-04-23T11:18:05.013Z,33.59
2023-04-23T11:20:51.310Z,34.74
2023-04-23T11:23:36.936Z,35.99
2023-04-23T11:26:27.417Z,37.85
2023-04-23T11:34:23.764Z,40.58
2023-04-23T11:37:11.433Z,37.99
2023-04-23T11:39:57.193Z,37.36
2023-04-23T11:42:46.462Z,37.39
2023-04-23T11:45:32.122Z,37.86
2023-04-23T11:48:17.966Z,37.76
2023-04-23T11:51:04.488Z,37.47
2023-04-23T11:53:50.166Z,36.78
2023-04-23T11:56:35.690Z,36.54
2023-04-23T11:59:21.132Z,36.94
2023-04-23T12:02:06.604Z,36.70
2023-04-23T12:04:53.348Z,35.97
2023-04-23T12:07:38.653Z,36.94
2023-04-23T12:10:24.442Z,37.24
2023-04-23T12:13:28.059Z,38.06
2023-04-23T12:16:13.702Z,36.32
2023-04-23T12:19:01.235Z,33.28
2023-04-23T12:21:58.500Z,30.02
2023-04-23T12:24:49.157Z,29.65
2023-04-23T12:27:40.106Z,29.64
2023-04-23T12:30:29.040Z,31.39
2023-04-23T12:33:14.341Z,31.57
2023-04-23T12:36:00.802Z,33.30
2023-04-23T12:38:46.180Z,33.49
2023-04-23T12:41:33.506Z,34.48
2023-04-23T12:44:19.900Z,37.15
2023-04-23T12:47:07.523Z,38.69
2023-04-23T12:49:55.065Z,34.66
2023-04-23T12:52:42.505Z,31.63
2023-04-23T12:55:27.798Z,29.65
2023-04-23T12:58:13.389Z,29.98
2023-04-23T13:00:59.219Z,28.70
2023-04-23T13:03:44.867Z,28.50
2023-04-23T13:06:30.382Z,31.29
2023-04-23T13:09:15.752Z,29.51
2023-04-23T13:12:02.372Z,27.72
2023-04-23T13:14:48.113Z,26.45
2023-04-23T13:17:33.676Z,25.59
2023-04-23T13:20:19.139Z,25.37
2023-04-23T13:23:04.569Z,25.72
2023-04-23T13:25:50.250Z,25.80
2023-04-23T13:28:36.232Z,26.52
2023-04-23T13:31:21.853Z,27.95
2023-04-23T13:34:07.596Z,27.49
2023-04-23T13:36:53.222Z,27.81
2023-04-23T13:39:41.684Z,28.73
2023-04-23T13:42:27.399Z,30.58
2023-04-23T13:45:14.738Z,29.45
2023-04-23T13:48:02.508Z,27.82
2023-04-23T13:50:47.931Z,29.08
2023-04-23T13:53:33.308Z,27.76
2023-04-23T13:56:18.984Z,25.91
2023-04-23T13:59:18.979Z,25.10
2023-04-23T14:02:05.725Z,24.20
2023-04-23T14:04:51.270Z,23.57
2023-04-23T14:07:36.885Z,22.96
2023-04-23T14:10:22.534Z,22.68
2023-04-23T14:13:07.822Z,22.34
2023-04-23T14:15:53.182Z,22.21
2023-04-23T14:18:38.574Z,22.03
2023-04-23T14:21:23.998Z,21.00
2023-04-23T14:24:28.927Z,19.37
2023-04-23T14:27:14.333Z,21.11
2023-04-23T14:30:05.270Z,23.01
2023-04-23T14:32:50.937Z,26.13
2023-04-23T14:38:27.277Z,30.16
2023-04-23T14:41:12.881Z,31.33
2023-04-23T14:44:02.367Z,32.45
2023-04-23T14:46:49.938Z,32.51
2023-04-23T14:49:35.688Z,32.93
2023-04-23T14:52:21.129Z,33.59
2023-04-23T14:55:07.020Z,33.76
2023-04-23T14:57:52.629Z,32.87
2023-04-23T15:00:38.580Z,31.24
2023-04-23T15:03:23.840Z,28.44
2023-04-23T15:06:09.367Z,26.91
2023-04-23T15:08:54.722Z,26.47
2023-04-23T15:11:41.693Z,25.40
2023-04-23T15:14:37.572Z,25.48
2023-04-23T15:17:23.221Z,24.65
2023-04-23T15:20:09.304Z,23.96
2023-04-23T15:22:55.228Z,23.81
2023-04-23T15:25:40.533Z,23.49
2023-04-23T15:28:25.912Z,23.21
2023-04-23T15:31:11.463Z,22.68
2023-04-23T15:33:56.938Z,22.33
2023-04-23T15:36:42.759Z,22.25
2023-04-23T15:39:29.256Z,21.72
2023-04-23T15:42:16.388Z,21.54
2023-04-23T15:45:03.440Z,21.39
2023-04-23T15:47:51.357Z,21.32
2023-04-23T15:50:36.919Z,21.01
2023-04-23T15:53:22.963Z,20.96
2023-04-23T15:56:08.443Z,20.74
2023-04-23T15:58:54.077Z,20.08
2023-04-23T16:01:40.074Z,19.65
2023-04-23T16:04:26.016Z,19.41
2023-04-23T16:07:11.784Z,19.05
2023-04-23T16:09:57.257Z,19.12
2023-04-23T16:12:45.504Z,19.26
2023-04-23T16:15:31.011Z,19.07
2023-04-23T16:18:16.601Z,19.00
2023-04-23T16:21:02.409Z,18.85
2023-04-23T16:23:49.522Z,18.74
2023-04-23T16:26:34.931Z,18.78
2023-04-23T16:29:22.487Z,18.66
2023-04-23T16:32:08.552Z,18.63
2023-04-23T16:34:53.883Z,18.64
2023-04-23T16:37:39.354Z,18.53
2023-04-23T16:40:24.748Z,18.52
2023-04-23T16:43:11.386Z,18.51
2023-04-23T16:45:57.489Z,18.32
2023-04-23T16:48:46.017Z,18.30
2023-04-23T16:51:32.415Z,18.31
2023-04-23T16:54:18.061Z,18.34
2023-04-23T16:57:05.814Z,18.27
2023-04-23T16:59:52.695Z,18.28
2023-04-23T17:02:41.172Z,18.21
2023-04-23T17:05:32.697Z,18.26
2023-04-23T17:08:18.399Z,17.93
2023-04-23T17:11:06.401Z,17.84
2023-04-23T17:13:52.697Z,17.95
2023-04-23T17:16:38.494Z,18.01
2023-04-23T17:19:24.444Z,17.96
2023-04-23T17:22:10.641Z,17.91
2023-04-23T17:24:56.098Z,17.79
2023-04-23T17:27:41.687Z,17.75
2023-04-23T17:30:27.156Z,17.82
2023-04-23T17:33:12.859Z,17.84
2023-04-23T17:35:58.271Z,17.83
2023-04-23T17:38:43.736Z,17.76
2023-04-23T17:41:29.328Z,17.77
2023-04-23T17:44:15.086Z,17.58
2023-04-23T17:47:01.787Z,17.50
2023-04-23T17:49:46.904Z,17.32
2023-04-23T17:52:32.400Z,17.12
2023-04-23T17:55:19.686Z,16.99
2023-04-23T17:58:05.691Z,16.90
2023-04-23T18:00:51.136Z,16.83
2023-04-23T18:03:37.056Z,16.84
2023-04-23T18:06:23.103Z,16.68
2023-04-23T18:09:08.904Z,16.55
2023-04-23T18:11:58.984Z,16.49
2023-04-23T18:14:44.412Z,16.44
2023-04-23T18:17:29.838Z,16.44
2023-04-23T18:20:16.251Z,16.31
2023-04-23T18:23:02.061Z,16.12
2023-04-23T18:25:48.306Z,16.17
2023-04-23T18:28:34.833Z,16.13
2023-04-23T18:31:19.923Z,16.09
2023-04-23T18:34:09.689Z,16.00
2023-04-23T18:36:55.469Z,16.05
2023-04-23T18:39:41.090Z,16.06
2023-04-23T18:42:26.649Z,16.14
2023-04-23T18:45:12.227Z,16.11
2023-04-23T18:48:02.561Z,16.10
2023-04-23T18:50:50.023Z,16.14
2023-04-23T18:53:37.109Z,16.08
2023-04-23T18:56:22.787Z,16.10
2023-04-23T18:59:08.402Z,16.16
2023-04-23T19:01:56.055Z,16.14
2023-04-23T19:04:41.635Z,16.19
2023-04-23T19:07:26.960Z,16.14
2023-04-23T19:10:13.731Z,16.15
2023-04-23T19:12:59.164Z,16.11
2023-04-23T19:15:44.854Z,16.02
2023-04-23T19:18:30.665Z,15.95
2023-04-23T19:21:15.962Z,15.87
2023-04-23T19:24:01.325Z,15.78
2023-04-23T19:26:46.661Z,15.63
2023-04-23T19:29:32.306Z,15.56
2023-04-23T19:32:17.779Z,15.46
2023-04-23T19:35:04.697Z,15.38
2023-04-23T19:37:50.901Z,15.26
2023-04-23T19:40:36.178Z,15.10
2023-04-23T19:43:21.793Z,15.07
2023-04-23T19:46:07.569Z,14.98
2023-04-23T19:48:54.883Z,14.99
2023-04-23T19:51:40.776Z,14.89
2023-04-23T19:54:26.193Z,14.87
2023-04-23T19:57:11.763Z,14.84
2023-04-23T19:59:57.395Z,14.81
2023-04-23T20:02:43.315Z,14.78
2023-04-23T20:05:29.709Z,14.72
2023-04-23T20:08:25.415Z,14.72
2023-04-23T20:11:10.904Z,14.67
2023-04-23T20:13:56.654Z,14.65
2023-04-23T20:16:42.185Z,14.53
2023-04-23T20:19:27.602Z,14.52
2023-04-23T20:22:13.297Z,14.43
2023-04-23T20:24:59.021Z,14.39
2023-04-23T20:27:44.580Z,14.33
2023-04-23T20:30:30.121Z,14.27
2023-04-23T20:33:16.041Z,14.30
2023-04-23T20:36:01.590Z,14.30
2023-04-23T20:38:47.280Z,14.27
2023-04-23T20:41:36.764Z,14.33
2023-04-23T20:44:22.576Z,14.29
2023-04-23T20:47:10.276Z,14.26
2023-04-23T20:49:55.782Z,14.29
2023-04-23T20:52:41.267Z,14.24
2023-04-23T20:55:26.786Z,14.23
2023-04-23T20:58:12.440Z,14.18
2023-04-23T21:00:57.918Z,14.11
2023-04-23T21:03:43.517Z,14.18
2023-04-23T21:06:31.196Z,14.23
2023-04-23T21:09:16.667Z,14.25
2023-04-23T21:12:02.221Z,14.28
2023-04-23T21:14:47.753Z,14.34
2023-04-23T21:17:33.172Z,14.44
2023-04-23T21:20:18.419Z,14.52
2023-04-23T21:23:03.818Z,14.52
2023-04-23T21:25:49.249Z,14.56
2023-04-23T21:28:36.267Z,14.64
2023-04-23T21:31:29.382Z,14.67
2023-04-23T21:34:15.058Z,14.71
2023-04-23T21:37:00.731Z,14.75
2023-04-23T21:39:46.234Z,14.84
2023-04-23T21:42:31.745Z,14.86
2023-04-23T21:45:17.582Z,14.88
2023-04-23T21:48:03.750Z,14.86
2023-04-23T21:50:49.674Z,14.86
2023-04-23T21:53:35.084Z,14.87
2023-04-23T21:56:21.530Z,14.87
2023-04-23T21:59:06.806Z,14.91
2023-04-23T22:01:52.270Z,14.89
2023-04-23T22:04:37.727Z,14.90
2023-04-23T22:07:23.323Z,14.87
2023-04-23T22:10:13.395Z,14.92
2023-04-23T22:12:58.952Z,14.98
2023-04-23T22:15:44.653Z,15.06
2023-04-23T22:18:30.716Z,15.13
2023-04-23T22:21:16.066Z,15.22
2023-04-23T22:24:03.593Z,15.27
2023-04-23T22:26:49.321Z,15.27
2023-04-23T22:29:34.669Z,15.32
2023-04-23T22:32:20.027Z,15.27
2023-04-23T22:35:07.075Z,15.34
2023-04-23T22:37:52.548Z,15.39
2023-04-23T22:40:38.267Z,15.41
2023-04-23T22:43:23.860Z,15.32
2023-04-23T22:46:09.425Z,15.35
2023-04-23T22:48:55.369Z,15.38
2023-04-23T22:51:40.696Z,15.35
2023-04-23T22:54:27.352Z,15.35
2023-04-23T22:57:12.869Z,15.39
2023-04-23T22:59:58.552Z,15.28
2023-04-23T23:02:44.260Z,15.28
2023-04-23T23:05:29.788Z,15.22
2023-04-23T23:08:15.634Z,15.29
2023-04-23T23:11:01.055Z,15.27
2023-04-23T23:13:47.644Z,15.15
2023-04-23T23:16:33.282Z,14.94
2023-04-23T23:19:18.786Z,14.30
2023-04-23T23:22:04.487Z,13.75
2023-04-23T23:24:50.014Z,13.48
2023-04-23T23:27:35.563Z,13.38
2023-04-23T23:30:20.970Z,13.37
2023-04-23T23:33:06.401Z,13.29
2023-04-23T23:35:51.677Z,13.34
2023-04-23T23:38:37.058Z,13.30
2023-04-23T23:41:22.627Z,13.38
2023-04-23T23:44:08.026Z,13.50
2023-04-23T23:46:53.753Z,13.47
2023-04-23T23:49:39.211Z,13.50
2023-04-23T23:52:25.125Z,13.50
2023-04-23T23:55:10.770Z,13.53
2023-04-23T23:57:56.312Z,13.52
